Time;durP1;ratioP1;P1;durP2;ratioP2;P2;SDS_P1;SDS_P2;PMS_P1;PMS_P2;Temp;Humidity;BMP_temperature;BMP_pressure;BME280_temperature;BME280_humidity;BME280_pressure;Samples;Min_cycle;Max_cycle;Signal;HPM_P1;HPM_P2
2020/09/12 00:01:03;;;;;;;2.3;1.5;;;;;;;18;79.4082;939.9548;;;;
2020/09/12 00:03:28;;;;;;;2.7;1.4;;;;;;;18.02;79.18066;939.9031;;;;
2020/09/12 00:05:58;;;;;;;1.6;1.4;;;;;;;18.02;79.08789;939.9963;;;;
2020/09/12 00:08:23;;;;;;;3.5;1.6;;;;;;;18;78.93359;939.9112;;;;
2020/09/12 00:10:57;;;;;;;1.4;1.2;;;;;;;17.74;80.41895;939.9562;;;;
2020/09/12 00:13:24;;;;;;;1.9;1.4;;;;;;;17.7;80.93457;939.8795;;;;
2020/09/12 00:15:49;;;;;;;1.4;1.2;;;;;;;17.73;80.75391;939.8992;;;;
2020/09/12 00:18:14;;;;;;;2.1;1.3;;;;;;;17.77;80.27441;939.921;;;;
2020/09/12 00:20:39;;;;;;;1.6;1.4;;;;;;;17.81;79.85156;939.9116;;;;
2020/09/12 00:23:05;;;;;;;1.9;1.2;;;;;;;17.65;80.46094;939.9951;;;;
2020/09/12 00:25:30;;;;;;;2.4;1.5;;;;;;;17.61;80.53516;939.9719;;;;
2020/09/12 00:27:56;;;;;;;2.2;1.7;;;;;;;17.64;80.08789;940.0025;;;;
2020/09/12 00:30:25;;;;;;;3.1;1.5;;;;;;;17.53;80.39258;939.9902;;;;
2020/09/12 00:32:50;;;;;;;2.7;1.1;;;;;;;17.26;82.30273;939.9863;;;;
2020/09/12 00:35:15;;;;;;;6.4;1.8;;;;;;;17.14;83.19434;940.0078;;;;
2020/09/12 00:37:42;;;;;;;3;1.9;;;;;;;17.07;83.49609;939.9902;;;;
2020/09/12 00:40:08;;;;;;;4.1;2;;;;;;;17.23;82.58691;940.002;;;;
2020/09/12 00:42:33;;;;;;;2;1.5;;;;;;;17.36;81.76465;940.0084;;;;
2020/09/12 00:44:58;;;;;;;2.6;1.6;;;;;;;17.4;81.63379;940.0334;;;;
2020/09/12 00:47:24;;;;;;;1.9;1.4;;;;;;;17.3;82.0332;939.9995;;;;
2020/09/12 00:49:49;;;;;;;1.8;1.3;;;;;;;17.15;82.62988;940.043;;;;
2020/09/12 00:52:14;;;;;;;2.9;1.6;;;;;;;16.99;83.44727;940.0858;;;;
2020/09/12 00:54:39;;;;;;;6.3;1.7;;;;;;;16.93;84.03613;940.077;;;;
2020/09/12 00:57:04;;;;;;;2.3;1.7;;;;;;;16.77;84.62012;940.0769;;;;
2020/09/12 00:59:29;;;;;;;1.7;1.3;;;;;;;16.73;84.98242;940.05;;;;
2020/09/12 01:01:54;;;;;;;1.8;1.5;;;;;;;16.56;85.98145;940.0648;;;;
2020/09/12 01:04:20;;;;;;;2.7;1.8;;;;;;;16.53;86.28516;940.0597;;;;
2020/09/12 01:06:45;;;;;;;3.6;1.9;;;;;;;16.48;86.47461;940.0497;;;;
2020/09/12 01:09:10;;;;;;;2.2;1.9;;;;;;;16.42;86.47363;940.117;;;;
2020/09/12 01:11:35;;;;;;;3.2;1.7;;;;;;;16.59;85.52344;940.149;;;;
2020/09/12 01:14:00;;;;;;;2.4;1.8;;;;;;;;;;;;;
2020/09/12 01:16:26;;;;;;;2.5;1.7;;;;;;;;;;;;;
2020/09/12 01:18:51;;;;;;;2.4;1.9;;;;;;;;;;;;;
2020/09/12 01:21:16;;;;;;;3.6;2.1;;;;;;;;;;;;;
2020/09/12 01:23:41;;;;;;;2;1.5;;;;;;;;;;;;;
2020/09/12 01:26:44;;;;;;;2.8;2.1;;;;;;;;;;;;;
2020/09/12 01:29:08;;;;;;;2.5;1.7;;;;;;;;;;;;;
2020/09/12 01:31:33;;;;;;;8.9;2.2;;;;;;;;;;;;;
2020/09/12 01:33:58;;;;;;;2.5;1.9;;;;;;;;;;;;;
2020/09/12 01:36:24;;;;;;;2.3;1.8;;;;;;;;;;;;;
2020/09/12 01:38:51;;;;;;;3.9;1.9;;;;;;;;;;;;;
2020/09/12 01:41:16;;;;;;;3.2;1.9;;;;;;;;;;;;;
2020/09/12 01:43:42;;;;;;;2.5;1.9;;;;;;;;;;;;;
2020/09/12 01:46:07;;;;;;;3.4;2.1;;;;;;;;;;;;;
2020/09/12 01:48:32;;;;;;;2.8;2;;;;;;;;;;;;;
2020/09/12 01:50:57;;;;;;;2.3;1.8;;;;;;;;;;;;;
2020/09/12 01:53:22;;;;;;;4.4;2.3;;;;;;;;;;;;;
2020/09/12 01:55:48;;;;;;;2.6;1.9;;;;;;;;;;;;;
2020/09/12 01:58:12;;;;;;;2.8;2;;;;;;;;;;;;;
2020/09/12 02:00:37;;;;;;;3.1;2;;;;;;;;;;;;;
2020/09/12 02:03:03;;;;;;;3.7;2.3;;;;;;;;;;;;;
2020/09/12 02:05:28;;;;;;;4.3;2.3;;;;;;;;;;;;;
2020/09/12 02:07:53;;;;;;;7.4;2.3;;;;;;;;;;;;;
2020/09/12 02:10:18;;;;;;;3.3;2.2;;;;;;;;;;;;;
2020/09/12 02:12:43;;;;;;;3.6;2.3;;;;;;;;;;;;;
2020/09/12 02:15:09;;;;;;;3.1;2;;;;;;;;;;;;;
2020/09/12 02:17:34;;;;;;;3.7;2.5;;;;;;;;;;;;;
2020/09/12 02:20:00;;;;;;;4.6;2.6;;;;;;;;;;;;;
2020/09/12 02:22:25;;;;;;;3.7;1.9;;;;;;;;;;;;;
2020/09/12 02:24:51;;;;;;;3.1;2.4;;;;;;;;;;;;;
2020/09/12 02:27:17;;;;;;;3.8;2.3;;;;;;;;;;;;;
2020/09/12 02:29:42;;;;;;;3.7;2.3;;;;;;;;;;;;;
2020/09/12 02:32:07;;;;;;;4.4;2.6;;;;;;;;;;;;;
2020/09/12 02:34:32;;;;;;;2.6;2;;;;;;;;;;;;;
2020/09/12 02:36:57;;;;;;;5.2;2.1;;;;;;;;;;;;;
2020/09/12 02:39:22;;;;;;;3.9;1.8;;;;;;;;;;;;;
2020/09/12 02:41:51;;;;;;;6.5;2.3;;;;;;;;;;;;;
2020/09/12 02:44:15;;;;;;;3.6;2;;;;;;;;;;;;;
2020/09/12 02:46:42;;;;;;;4;2.2;;;;;;;;;;;;;
2020/09/12 02:49:07;;;;;;;5.9;2.4;;;;;;;;;;;;;
2020/09/12 02:51:32;;;;;;;3;2.1;;;;;;;;;;;;;
2020/09/12 02:53:57;;;;;;;2.4;2;;;;;;;;;;;;;
2020/09/12 02:56:22;;;;;;;2.5;2;;;;;;;;;;;;;
2020/09/12 02:58:47;;;;;;;4.3;2.3;;;;;;;;;;;;;
2020/09/12 03:01:14;;;;;;;3.1;1.7;;;;;;;;;;;;;
2020/09/12 03:03:39;;;;;;;3;2.1;;;;;;;;;;;;;
2020/09/12 03:06:04;;;;;;;2.4;1.6;;;;;;;;;;;;;
2020/09/12 03:08:29;;;;;;;3.9;2.2;;;;;;;;;;;;;
2020/09/12 03:10:57;;;;;;;2.3;1.7;;;;;;;;;;;;;
2020/09/12 03:13:22;;;;;;;3.5;2.1;;;;;;;;;;;;;
2020/09/12 03:15:48;;;;;;;3.7;2;;;;;;;;;;;;;
2020/09/12 03:18:13;;;;;;;6.6;2.5;;;;;;;;;;;;;
2020/09/12 03:20:39;;;;;;;5.1;1.8;;;;;;;;;;;;;
2020/09/12 03:23:04;;;;;;;3.9;2.2;;;;;;;;;;;;;
2020/09/12 03:25:30;;;;;;;3.3;2.1;;;;;;;;;;;;;
2020/09/12 03:27:55;;;;;;;3.8;2.3;;;;;;;;;;;;;
2020/09/12 03:30:23;;;;;;;3.1;1.9;;;;;;;;;;;;;
2020/09/12 03:32:48;;;;;;;3.5;2.4;;;;;;;;;;;;;
2020/09/12 03:35:13;;;;;;;4.3;2.1;;;;;;;;;;;;;
2020/09/12 03:37:38;;;;;;;2.6;2;;;;;;;;;;;;;
2020/09/12 03:40:04;;;;;;;2.3;1.7;;;;;;;;;;;;;
2020/09/12 03:42:29;;;;;;;2.2;1.6;;;;;;;;;;;;;
2020/09/12 03:44:55;;;;;;;2.3;1.8;;;;;;;;;;;;;
2020/09/12 03:47:20;;;;;;;3.4;2.4;;;;;;;;;;;;;
2020/09/12 03:49:46;;;;;;;3.9;2;;;;;;;;;;;;;
2020/09/12 03:52:11;;;;;;;2.6;2.1;;;;;;;;;;;;;
2020/09/12 03:54:37;;;;;;;2.1;1.7;;;;;;;;;;;;;
2020/09/12 03:57:02;;;;;;;3.8;2.2;;;;;;;;;;;;;
2020/09/12 03:59:28;;;;;;;2.3;1.8;;;;;;;;;;;;;
2020/09/12 04:02:34;;;;;;;2.6;1.8;;;;;;;15.98;84.8252;940.1612;;;;
2020/09/12 04:04:59;;;;;;;3.8;2;;;;;;;;;;;;;
2020/09/12 04:07:26;;;;;;;2;1.7;;;;;;;;;;;;;
2020/09/12 04:09:51;;;;;;;2.6;2;;;;;;;;;;;;;
2020/09/12 04:12:17;;;;;;;2.5;1.7;;;;;;;;;;;;;
2020/09/12 04:14:42;;;;;;;2.2;1.8;;;;;;;;;;;;;
2020/09/12 04:17:09;;;;;;;3;1.8;;;;;;;;;;;;;
2020/09/12 04:19:34;;;;;;;2.6;1.9;;;;;;;;;;;;;
2020/09/12 04:21:59;;;;;;;2.9;2.2;;;;;;;;;;;;;
2020/09/12 04:24:24;;;;;;;5.9;2.1;;;;;;;;;;;;;
2020/09/12 04:26:50;;;;;;;9.4;2.5;;;;;;;;;;;;;
2020/09/12 04:29:15;;;;;;;3.3;2.3;;;;;;;;;;;;;
2020/09/12 04:31:40;;;;;;;2.9;1.6;;;;;;;;;;;;;
2020/09/12 04:34:06;;;;;;;2.6;1.9;;;;;;;;;;;;;
2020/09/12 04:36:31;;;;;;;2.2;1.8;;;;;;;;;;;;;
2020/09/12 04:38:56;;;;;;;3.7;2.2;;;;;;;;;;;;;
2020/09/12 04:41:22;;;;;;;4.2;2;;;;;;;;;;;;;
2020/09/12 04:43:47;;;;;;;2.6;1.8;;;;;;;;;;;;;
2020/09/12 04:46:13;;;;;;;3;2.1;;;;;;;;;;;;;
2020/09/12 04:48:38;;;;;;;6.2;2.3;;;;;;;;;;;;;
2020/09/12 04:51:03;;;;;;;2.8;2;;;;;;;;;;;;;
2020/09/12 04:53:29;;;;;;;3.7;2.1;;;;;;;;;;;;;
2020/09/12 04:55:54;;;;;;;6;2.8;;;;;;;;;;;;;
2020/09/12 04:58:19;;;;;;;2;1.8;;;;;;;;;;;;;
2020/09/12 05:00:44;;;;;;;5;2.6;;;;;;;;;;;;;
2020/09/12 05:03:09;;;;;;;3.6;2.1;;;;;;;;;;;;;
2020/09/12 05:05:34;;;;;;;3.5;2.4;;;;;;;;;;;;;
2020/09/12 05:07:59;;;;;;;6.5;2.9;;;;;;;;;;;;;
2020/09/12 05:10:25;;;;;;;7.7;3;;;;;;;;;;;;;
2020/09/12 05:12:50;;;;;;;6.2;2.4;;;;;;;;;;;;;
2020/09/12 05:15:15;;;;;;;4.3;2.9;;;;;;;;;;;;;
2020/09/12 05:17:40;;;;;;;4.3;2.5;;;;;;;;;;;;;
2020/09/12 05:20:05;;;;;;;4.1;2.5;;;;;;;;;;;;;
2020/09/12 05:22:30;;;;;;;4.5;2.3;;;;;;;;;;;;;
2020/09/12 05:24:55;;;;;;;3;2;;;;;;;;;;;;;
2020/09/12 05:27:22;;;;;;;3.6;2.1;;;;;;;;;;;;;
2020/09/12 05:29:47;;;;;;;2.1;1.9;;;;;;;;;;;;;
2020/09/12 05:32:13;;;;;;;5;2.4;;;;;;;;;;;;;
2020/09/12 05:34:38;;;;;;;3.3;2.1;;;;;;;;;;;;;
2020/09/12 05:37:07;;;;;;;8.1;1.9;;;;;;;;;;;;;
2020/09/12 05:39:29;;;;;;;3.5;2.2;;;;;;;;;;;;;
2020/09/12 05:41:54;;;;;;;7.4;2.2;;;;;;;;;;;;;
2020/09/12 05:44:20;;;;;;;3.5;2.3;;;;;;;;;;;;;
2020/09/12 05:46:45;;;;;;;3.7;1.9;;;;;;;;;;;;;
2020/09/12 05:49:10;;;;;;;4.3;2.2;;;;;;;;;;;;;
2020/09/12 05:51:35;;;;;;;3.2;2.1;;;;;;;;;;;;;
2020/09/12 05:54:00;;;;;;;4.9;2.2;;;;;;;;;;;;;
2020/09/12 05:56:25;;;;;;;3.4;2.1;;;;;;;;;;;;;
2020/09/12 05:58:50;;;;;;;2.4;1.7;;;;;;;;;;;;;
2020/09/12 06:01:15;;;;;;;11.3;2;;;;;;;;;;;;;
2020/09/12 06:03:40;;;;;;;4.3;2.1;;;;;;;;;;;;;
2020/09/12 06:06:05;;;;;;;2.4;1.6;;;;;;;;;;;;;
2020/09/12 06:08:31;;;;;;;1.9;1.6;;;;;;;;;;;;;
2020/09/12 06:10:56;;;;;;;2.8;1.8;;;;;;;;;;;;;
2020/09/12 06:13:21;;;;;;;2.8;1.8;;;;;;;;;;;;;
2020/09/12 06:15:46;;;;;;;3.4;2.1;;;;;;;;;;;;;
2020/09/12 06:18:11;;;;;;;2.9;1.9;;;;;;;;;;;;;
2020/09/12 06:20:36;;;;;;;2.3;1.7;;;;;;;;;;;;;
2020/09/12 06:23:01;;;;;;;2.5;1.6;;;;;;;;;;;;;
2020/09/12 06:25:26;;;;;;;2.9;1.4;;;;;;;;;;;;;
2020/09/12 06:27:51;;;;;;;2.4;1.5;;;;;;;;;;;;;
2020/09/12 06:30:21;;;;;;;2.9;1.7;;;;;;;;;;;;;
2020/09/12 06:32:46;;;;;;;4.3;1.2;;;;;;;;;;;;;
2020/09/12 06:35:11;;;;;;;1.2;1.1;;;;;;;;;;;;;
2020/09/12 06:37:36;;;;;;;6.1;1.5;;;;;;;;;;;;;
2020/09/12 06:40:00;;;;;;;1.9;1.2;;;;;;;;;;;;;
2020/09/12 06:42:26;;;;;;;1.3;1;;;;;;;;;;;;;
2020/09/12 06:44:51;;;;;;;2.2;1.7;;;;;;;;;;;;;
2020/09/12 06:47:16;;;;;;;3.3;1.5;;;;;;;;;;;;;
2020/09/12 06:49:43;;;;;;;1.5;1.2;;;;;;;;;;;;;
2020/09/12 06:52:08;;;;;;;1.6;0.9;;;;;;;;;;;;;
2020/09/12 06:54:33;;;;;;;1.8;1;;;;;;;;;;;;;
2020/09/12 06:56:59;;;;;;;1.8;1;;;;;;;;;;;;;
2020/09/12 06:59:24;;;;;;;1.9;1.1;;;;;;;;;;;;;
2020/09/12 07:01:50;;;;;;;1.5;1.2;;;;;;;;;;;;;
2020/09/12 07:04:15;;;;;;;2.5;1.3;;;;;;;;;;;;;
2020/09/12 07:06:41;;;;;;;1.7;1.3;;;;;;;;;;;;;
2020/09/12 07:09:06;;;;;;;1;0.9;;;;;;;;;;;;;
2020/09/12 07:11:36;;;;;;;3;1.5;;;;;;;;;;;;;
2020/09/12 07:14:02;;;;;;;1.4;0.9;;;;;;;;;;;;;
2020/09/12 07:16:27;;;;;;;2.2;1.3;;;;;;;;;;;;;
2020/09/12 07:18:54;;;;;;;1.5;1.2;;;;;;;;;;;;;
2020/09/12 07:21:19;;;;;;;11.5;1.3;;;;;;;;;;;;;
2020/09/12 07:23:45;;;;;;;1.1;1;;;;;;;;;;;;;
2020/09/12 07:26:10;;;;;;;2.7;1;;;;;;;;;;;;;
2020/09/12 07:28:36;;;;;;;2.8;1.1;;;;;;;;;;;;;
2020/09/12 07:31:01;;;;;;;2.2;1;;;;;;;;;;;;;
2020/09/12 07:33:27;;;;;;;4.4;1.3;;;;;;;;;;;;;
2020/09/12 07:35:52;;;;;;;1.8;1.2;;;;;;;;;;;;;
2020/09/12 07:38:18;;;;;;;3.8;1.1;;;;;;;;;;;;;
2020/09/12 07:40:43;;;;;;;1.4;1.1;;;;;;;;;;;;;
2020/09/12 07:43:10;;;;;;;1.6;1;;;;;;;;;;;;;
2020/09/12 07:45:35;;;;;;;1.9;0.9;;;;;;;;;;;;;
2020/09/12 07:48:01;;;;;;;1.2;1.1;;;;;;;;;;;;;
2020/09/12 07:50:26;;;;;;;1.1;0.9;;;;;;;;;;;;;
2020/09/12 07:52:52;;;;;;;3.7;1.4;;;;;;;;;;;;;
2020/09/12 07:55:17;;;;;;;1.7;1;;;;;;;;;;;;;
2020/09/12 07:57:46;;;;;;;1.7;1;;;;;;;;;;;;;
2020/09/12 08:00:11;;;;;;;2.8;1.2;;;;;;;;;;;;;
2020/09/12 08:02:36;;;;;;;1.2;1;;;;;;;;;;;;;
2020/09/12 08:05:01;;;;;;;1.5;1.1;;;;;;;;;;;;;
2020/09/12 08:07:26;;;;;;;1.2;0.8;;;;;;;;;;;;;
2020/09/12 08:09:52;;;;;;;2.4;1.2;;;;;;;;;;;;;
2020/09/12 08:12:20;;;;;;;2.4;1;;;;;;;;;;;;;
2020/09/12 08:14:45;;;;;;;1.5;1;;;;;;;;;;;;;
2020/09/12 08:17:10;;;;;;;2.4;1;;;;;;;;;;;;;
2020/09/12 08:19:35;;;;;;;2.3;0.9;;;;;;;;;;;;;
2020/09/12 08:22:01;;;;;;;1.4;0.9;;;;;;;;;;;;;
2020/09/12 08:24:26;;;;;;;1.3;0.8;;;;;;;;;;;;;
2020/09/12 08:26:51;;;;;;;1.8;1;;;;;;;;;;;;;
2020/09/12 08:29:16;;;;;;;1.4;1.1;;;;;;;;;;;;;
2020/09/12 08:31:41;;;;;;;1.5;1.1;;;;;;;;;;;;;
2020/09/12 08:34:07;;;;;;;2.7;1.1;;;;;;;;;;;;;
2020/09/12 08:36:32;;;;;;;1.8;1;;;;;;;;;;;;;
2020/09/12 08:38:59;;;;;;;0.8;0.7;;;;;;;;;;;;;
2020/09/12 08:41:24;;;;;;;1.5;0.8;;;;;;;;;;;;;
2020/09/12 08:43:49;;;;;;;2;1.3;;;;;;;;;;;;;
2020/09/12 08:46:14;;;;;;;1.3;0.9;;;;;;;;;;;;;
2020/09/12 08:48:41;;;;;;;1.4;1;;;;;;;;;;;;;
2020/09/12 08:51:06;;;;;;;0.8;0.8;;;;;;;;;;;;;
2020/09/12 08:53:32;;;;;;;1.5;1;;;;;;;;;;;;;
2020/09/12 08:55:57;;;;;;;1.9;1.1;;;;;;;;;;;;;
2020/09/12 08:58:23;;;;;;;2.7;1;;;;;;;;;;;;;
2020/09/12 09:00:48;;;;;;;0.9;0.8;;;;;;;;;;;;;
2020/09/12 09:03:14;;;;;;;0.8;0.8;;;;;;;;;;;;;
2020/09/12 09:05:39;;;;;;;1;0.8;;;;;;;;;;;;;
2020/09/12 09:08:07;;;;;;;1.4;0.8;;;;;;;;;;;;;
2020/09/12 09:10:32;;;;;;;1;0.8;;;;;;;;;;;;;
2020/09/12 09:12:58;;;;;;;3;1.1;;;;;;;;;;;;;
2020/09/12 09:15:23;;;;;;;1.8;1.2;;;;;;;;;;;;;
2020/09/12 09:17:50;;;;;;;7.9;3.8;;;;;;;;;;;;;
2020/09/12 09:20:15;;;;;;;3;2.1;;;;;;;;;;;;;
2020/09/12 09:22:40;;;;;;;5.6;2.9;;;;;;;;;;;;;
2020/09/12 09:25:05;;;;;;;5.7;2.3;;;;;;;;;;;;;
2020/09/12 09:27:31;;;;;;;3.4;1.7;;;;;;;;;;;;;
2020/09/12 09:29:56;;;;;;;1.7;1;;;;;;;;;;;;;
2020/09/12 09:32:22;;;;;;;4.8;1.8;;;;;;;;;;;;;
2020/09/12 09:34:47;;;;;;;1.4;0.9;;;;;;;;;;;;;
2020/09/12 09:37:13;;;;;;;1.2;1;;;;;;;;;;;;;
2020/09/12 09:39:38;;;;;;;1.8;1.1;;;;;;;;;;;;;
2020/09/12 09:42:05;;;;;;;1.6;1.1;;;;;;;;;;;;;
2020/09/12 09:44:30;;;;;;;1;0.9;;;;;;;;;;;;;
2020/09/12 09:46:56;;;;;;;5.3;1.8;;;;;;;;;;;;;
2020/09/12 09:49:21;;;;;;;10.6;3.1;;;;;;;;;;;;;
2020/09/12 09:51:47;;;;;;;4.9;1.5;;;;;;;;;;;;;
2020/09/12 09:54:12;;;;;;;3.2;1.2;;;;;;;;;;;;;
2020/09/12 09:56:38;;;;;;;6.9;1.7;;;;;;;;;;;;;
2020/09/12 09:59:03;;;;;;;2.5;1.2;;;;;;;;;;;;;
2020/09/12 10:01:30;;;;;;;1.5;0.9;;;;;;;;;;;;;
2020/09/12 10:03:55;;;;;;;1.1;0.8;;;;;;;;;;;;;
2020/09/12 10:06:22;;;;;;;2;1;;;;;;;;;;;;;
2020/09/12 10:08:47;;;;;;;1.3;0.8;;;;;;;;;;;;;
2020/09/12 10:11:14;;;;;;;1.2;0.9;;;;;;;;;;;;;
2020/09/12 10:13:39;;;;;;;2.9;1.7;;;;;;;;;;;;;
2020/09/12 10:16:04;;;;;;;3.5;1.6;;;;;;;;;;;;;
2020/09/12 10:18:29;;;;;;;4.4;2.2;;;;;;;;;;;;;
2020/09/12 10:20:57;;;;;;;1.5;0.9;;;;;;;;;;;;;
2020/09/12 10:23:22;;;;;;;1.3;0.9;;;;;;;;;;;;;
2020/09/12 10:25:49;;;;;;;1.2;0.9;;;;;;;;;;;;;
2020/09/12 10:28:14;;;;;;;1.1;0.8;;;;;;;;;;;;;
2020/09/12 10:30:39;;;;;;;1.7;1.1;;;;;;;;;;;;;
2020/09/12 10:33:04;;;;;;;1.9;1.4;;;;;;;;;;;;;
2020/09/12 10:35:29;;;;;;;1.6;1.3;;;;;;;;;;;;;
2020/09/12 10:37:54;;;;;;;1.2;1;;;;;;;;;;;;;
2020/09/12 10:40:19;;;;;;;1.3;1.1;;;;;;;;;;;;;
2020/09/12 10:42:44;;;;;;;2.2;1.3;;;;;;;;;;;;;
2020/09/12 10:45:09;;;;;;;1.8;1;;;;;;;;;;;;;
2020/09/12 10:47:35;;;;;;;0.9;0.6;;;;;;;;;;;;;
2020/09/12 10:50:00;;;;;;;2.7;1.2;;;;;;;;;;;;;
2020/09/12 10:52:25;;;;;;;3.4;1.4;;;;;;;;;;;;;
2020/09/12 10:54:51;;;;;;;2.1;0.9;;;;;;;;;;;;;
2020/09/12 10:57:15;;;;;;;1.4;1;;;;;;;;;;;;;
2020/09/12 10:59:40;;;;;;;1.1;1;;;;;;;;;;;;;
2020/09/12 11:02:05;;;;;;;1.7;0.9;;;;;;;;;;;;;
2020/09/12 11:04:30;;;;;;;1.3;1.1;;;;;;;;;;;;;
2020/09/12 11:06:56;;;;;;;2.5;1.3;;;;;;;;;;;;;
2020/09/12 11:09:22;;;;;;;1;0.8;;;;;;;;;;;;;
2020/09/12 11:11:47;;;;;;;1.7;1.2;;;;;;;;;;;;;
2020/09/12 11:14:16;;;;;;;1.5;1.1;;;;;;;;;;;;;
2020/09/12 11:16:41;;;;;;;7.2;1.5;;;;;;;;;;;;;
2020/09/12 11:19:06;;;;;;;1.9;1.4;;;;;;;;;;;;;
2020/09/12 11:21:31;;;;;;;1.1;0.9;;;;;;;;;;;;;
2020/09/12 11:23:56;;;;;;;1;0.9;;;;;;;;;;;;;
2020/09/12 11:26:21;;;;;;;2.9;1.4;;;;;;;;;;;;;
2020/09/12 11:28:47;;;;;;;1.9;1.3;;;;;;;;;;;;;
2020/09/12 11:31:12;;;;;;;1.4;1;;;;;;;;;;;;;
2020/09/12 11:33:37;;;;;;;2.4;1.3;;;;;;;;;;;;;
2020/09/12 11:36:02;;;;;;;4.9;1.5;;;;;;;;;;;;;
2020/09/12 11:38:29;;;;;;;1.3;1.1;;;;;;;;;;;;;
2020/09/12 11:40:54;;;;;;;2;1.1;;;;;;;;;;;;;
2020/09/12 11:43:19;;;;;;;1.7;1.2;;;;;;;;;;;;;
2020/09/12 11:45:45;;;;;;;3.8;1.9;;;;;;;;;;;;;
2020/09/12 11:48:10;;;;;;;1.5;1.3;;;;;;;;;;;;;
2020/09/12 11:50:36;;;;;;;1.6;1.2;;;;;;;;;;;;;
2020/09/12 11:53:01;;;;;;;2.2;1.5;;;;;;;;;;;;;
2020/09/12 11:55:26;;;;;;;2.3;1.1;;;;;;;;;;;;;
2020/09/12 11:57:51;;;;;;;1.7;0.9;;;;;;;;;;;;;
2020/09/12 12:00:24;;;;;;;1.5;1.3;;;;;;;;;;;;;
2020/09/12 12:02:49;;;;;;;2.2;1.2;;;;;;;;;;;;;
2020/09/12 12:05:14;;;;;;;7.1;1.5;;;;;;;;;;;;;
2020/09/12 12:07:39;;;;;;;1.5;1;;;;;;;;;;;;;
2020/09/12 12:10:04;;;;;;;1.5;1.2;;;;;;;;;;;;;
2020/09/12 12:12:31;;;;;;;1.4;1.2;;;;;;;;;;;;;
2020/09/12 12:14:56;;;;;;;1.5;1.1;;;;;;;;;;;;;
2020/09/12 12:17:22;;;;;;;1.3;1;;;;;;;;;;;;;
2020/09/12 12:19:47;;;;;;;1.8;0.9;;;;;;;;;;;;;
2020/09/12 12:22:13;;;;;;;4.3;1.6;;;;;;;;;;;;;
2020/09/12 12:24:38;;;;;;;1.3;1.1;;;;;;;;;;;;;
2020/09/12 12:27:03;;;;;;;3;1.6;;;;;;;;;;;;;
2020/09/12 12:29:28;;;;;;;1.2;1;;;;;;;;;;;;;
2020/09/12 12:31:53;;;;;;;1.1;0.9;;;;;;;;;;;;;
2020/09/12 12:34:20;;;;;;;1.4;1.1;;;;;;;;;;;;;
2020/09/12 12:36:45;;;;;;;1.4;1.3;;;;;;;;;;;;;
2020/09/12 12:39:11;;;;;;;6.3;1.3;;;;;;;;;;;;;
2020/09/12 12:41:36;;;;;;;2.1;1.1;;;;;;;;;;;;;
2020/09/12 12:44:05;;;;;;;3.4;1.6;;;;;;;;;;;;;
2020/09/12 12:46:30;;;;;;;1.2;1;;;;;;;;;;;;;
2020/09/12 12:48:55;;;;;;;2;1.3;;;;;;;;;;;;;
2020/09/12 12:51:20;;;;;;;1.2;1.1;;;;;;;;;;;;;
2020/09/12 12:53:45;;;;;;;1.7;1.2;;;;;;;;;;;;;
2020/09/12 12:56:10;;;;;;;1.2;0.9;;;;;;;;;;;;;
2020/09/12 12:58:43;;;;;;;1.5;1.2;;;;;;;;;;;;;
2020/09/12 13:01:09;;;;;;;1.8;1.3;;;;;;;;;;;;;
2020/09/12 13:03:34;;;;;;;2.1;1.2;;;;;;;;;;;;;
2020/09/12 13:06:03;;;;;;;1;0.8;;;;;;;;;;;;;
2020/09/12 13:08:27;;;;;;;2.4;1.2;;;;;;;;;;;;;
2020/09/12 13:10:53;;;;;;;2.3;1.1;;;;;;;;;;;;;
2020/09/12 13:13:18;;;;;;;2.7;1.3;;;;;;;;;;;;;
2020/09/12 13:15:44;;;;;;;2.9;1.2;;;;;;;;;;;;;
2020/09/12 13:18:09;;;;;;;1.7;1;;;;;;;;;;;;;
2020/09/12 13:20:35;;;;;;;7.8;1.2;;;;;;;;;;;;;
2020/09/12 13:23:00;;;;;;;1.1;1;;;;;;;;;;;;;
2020/09/12 13:25:27;;;;;;;2;1.1;;;;;;;;;;;;;
2020/09/12 13:27:52;;;;;;;1.8;1.4;;;;;;;;;;;;;
2020/09/12 13:30:20;;;;;;;3;1.3;;;;;;;;;;;;;
2020/09/12 13:32:45;;;;;;;3.2;1.2;;;;;;;;;;;;;
2020/09/12 13:35:10;;;;;;;2.8;1.5;;;;;;;;;;;;;
2020/09/12 13:37:35;;;;;;;1.1;1;;;;;;;;;;;;;
2020/09/12 13:40:00;;;;;;;1.4;1;;;;;;;;;;;;;
2020/09/12 13:42:25;;;;;;;1.4;1;;;;;;;;;;;;;
2020/09/12 13:44:51;;;;;;;1.5;0.7;;;;;;;;;;;;;
2020/09/12 13:47:16;;;;;;;1;0.8;;;;;;;;;;;;;
2020/09/12 13:49:42;;;;;;;2.1;1.2;;;;;;;;;;;;;
2020/09/12 13:52:07;;;;;;;1.6;1;;;;;;;;;;;;;
2020/09/12 13:54:32;;;;;;;0.9;0.8;;;;;;;;;;;;;
2020/09/12 13:56:57;;;;;;;3.3;1.1;;;;;;;;;;;;;
2020/09/12 13:59:22;;;;;;;1.1;1;;;;;;;;;;;;;
2020/09/12 14:01:48;;;;;;;1.1;0.9;;;;;;;;;;;;;
2020/09/12 14:04:13;;;;;;;1.5;1.1;;;;;;;;;;;;;
2020/09/12 14:06:38;;;;;;;2;1;;;;;;;;;;;;;
2020/09/12 14:09:03;;;;;;;2.2;1.4;;;;;;;;;;;;;
2020/09/12 14:11:29;;;;;;;2.1;1.2;;;;;;;;;;;;;
2020/09/12 14:13:54;;;;;;;1.1;0.8;;;;;;;;;;;;;
2020/09/12 14:16:21;;;;;;;2.6;1.2;;;;;;;;;;;;;
2020/09/12 14:18:45;;;;;;;1.8;1.3;;;;;;;;;;;;;
2020/09/12 14:21:12;;;;;;;1.3;1;;;;;;;;;;;;;
2020/09/12 14:23:37;;;;;;;1.3;1;;;;;;;;;;;;;
2020/09/12 14:26:03;;;;;;;1.5;1.1;;;;;;;;;;;;;
2020/09/12 14:28:28;;;;;;;0.7;0.7;;;;;;;;;;;;;
2020/09/12 14:30:55;;;;;;;1.4;1.2;;;;;;;;;;;;;
2020/09/12 14:33:20;;;;;;;1.1;1;;;;;;;;;;;;;
2020/09/12 14:35:45;;;;;;;1.2;0.9;;;;;;;;;;;;;
2020/09/12 14:38:10;;;;;;;1.8;1.2;;;;;;;;;;;;;
2020/09/12 14:40:37;;;;;;;2.4;1.4;;;;;;;;;;;;;
2020/09/12 14:43:02;;;;;;;1.4;1;;;;;;;;;;;;;
2020/09/12 14:45:28;;;;;;;1.6;1.1;;;;;;;;;;;;;
2020/09/12 14:47:53;;;;;;;1;0.7;;;;;;;;;;;;;
2020/09/12 14:50:19;;;;;;;2.2;1.3;;;;;;;;;;;;;
2020/09/12 14:52:44;;;;;;;1.8;0.9;;;;;;;;;;;;;
2020/09/12 14:55:12;;;;;;;1.9;1.4;;;;;;;;;;;;;
2020/09/12 14:57:37;;;;;;;1.8;1.2;;;;;;;;;;;;;
2020/09/12 15:00:02;;;;;;;2.6;1.3;;;;;;;;;;;;;
2020/09/12 15:02:27;;;;;;;2.2;1.1;;;;;;;;;;;;;
2020/09/12 15:04:52;;;;;;;1.8;1;;;;;;;;;;;;;
2020/09/12 15:07:17;;;;;;;2.9;1.4;;;;;;;;;;;;;
2020/09/12 15:09:42;;;;;;;3.3;1.3;;;;;;;;;;;;;
2020/09/12 15:12:07;;;;;;;2.1;1.2;;;;;;;;;;;;;
2020/09/12 15:14:32;;;;;;;5.7;1.5;;;;;;;;;;;;;
2020/09/12 15:16:58;;;;;;;2.2;1.2;;;;;;;;;;;;;
2020/09/12 15:19:23;;;;;;;1.4;1.2;;;;;;;;;;;;;
2020/09/12 15:21:50;;;;;;;1.4;1.3;;;;;;;;;;;;;
2020/09/12 15:24:15;;;;;;;2.7;1.1;;;;;;;;;;;;;
2020/09/12 15:26:41;;;;;;;1.8;1.2;;;;;;;;;;;;;
2020/09/12 15:29:06;;;;;;;1.4;1.2;;;;;;;;;;;;;
2020/09/12 15:31:32;;;;;;;1.6;1.1;;;;;;;;;;;;;
2020/09/12 15:33:56;;;;;;;1.9;1.1;;;;;;;;;;;;;
2020/09/12 15:36:24;;;;;;;2.1;1.3;;;;;;;;;;;;;
2020/09/12 15:38:49;;;;;;;3;1.8;;;;;;;;;;;;;
2020/09/12 15:41:14;;;;;;;1.3;1.1;;;;;;;;;;;;;
2020/09/12 15:43:40;;;;;;;2.1;1;;;;;;;;;;;;;
2020/09/12 15:46:05;;;;;;;1.8;1;;;;;;;;;;;;;
2020/09/12 15:48:30;;;;;;;1.6;1.3;;;;;;;;;;;;;
2020/09/12 15:50:55;;;;;;;2.2;1.2;;;;;;;;;;;;;
2020/09/12 15:53:20;;;;;;;2.4;1.4;;;;;;;;;;;;;
2020/09/12 15:55:45;;;;;;;2.1;1.4;;;;;;;;;;;;;
2020/09/12 15:58:11;;;;;;;1.4;1.1;;;;;;;;;;;;;
2020/09/12 16:00:36;;;;;;;2.3;1.4;;;;;;;;;;;;;
2020/09/12 16:03:05;;;;;;;2;1.3;;;;;;;;;;;;;
2020/09/12 16:05:30;;;;;;;1.9;1.2;;;;;;;;;;;;;
2020/09/12 16:07:55;;;;;;;1.2;0.9;;;;;;;;;;;;;
2020/09/12 16:10:20;;;;;;;1.3;1.2;;;;;;;;;;;;;
2020/09/12 16:12:46;;;;;;;2.5;1.2;;;;;;;;;;;;;
2020/09/12 16:15:11;;;;;;;1.1;1;;;;;;;;;;;;;
2020/09/12 16:17:37;;;;;;;1.4;1;;;;;;;;;;;;;
2020/09/12 16:20:02;;;;;;;2.6;1.2;;;;;;;;;;;;;
2020/09/12 16:22:29;;;;;;;2.4;1.5;;;;;;;;;;;;;
2020/09/12 16:24:54;;;;;;;2.1;1.2;;;;;;;;;;;;;
2020/09/12 16:27:20;;;;;;;1.8;1.2;;;;;;;;;;;;;
2020/09/12 16:29:45;;;;;;;1.4;1.1;;;;;;;;;;;;;
2020/09/12 16:32:11;;;;;;;4.2;1.2;;;;;;;;;;;;;
2020/09/12 16:34:37;;;;;;;1.6;1.1;;;;;;;;;;;;;
2020/09/12 16:37:02;;;;;;;2.8;1.7;;;;;;;;;;;;;
2020/09/12 16:39:27;;;;;;;2.8;1.1;;;;;;;;;;;;;
2020/09/12 16:41:55;;;;;;;2.6;1.3;;;;;;;;;;;;;
2020/09/12 16:44:20;;;;;;;1.9;1.5;;;;;;;;;;;;;
2020/09/12 16:46:46;;;;;;;3.1;1.5;;;;;;;;;;;;;
2020/09/12 16:49:11;;;;;;;2.2;1.4;;;;;;;;;;;;;
2020/09/12 16:51:36;;;;;;;2.9;1;;;;;;;;;;;;;
2020/09/12 16:54:01;;;;;;;1.7;0.9;;;;;;;;;;;;;
2020/09/12 16:56:27;;;;;;;2;1.2;;;;;;;;;;;;;
2020/09/12 16:58:53;;;;;;;1.3;1.2;;;;;;;;;;;;;
2020/09/12 17:01:20;;;;;;;3.1;1.4;;;;;;;;;;;;;
2020/09/12 17:03:44;;;;;;;2.5;1.6;;;;;;;;;;;;;
2020/09/12 17:06:11;;;;;;;3.1;1.4;;;;;;;;;;;;;
2020/09/12 17:08:36;;;;;;;2.5;1.2;;;;;;;;;;;;;
2020/09/12 17:11:03;;;;;;;3.5;1.6;;;;;;;;;;;;;
2020/09/12 17:13:31;;;;;;;4.7;2;;;;;;;;;;;;;
2020/09/12 17:15:57;;;;;;;3.9;1.2;;;;;;;;;;;;;
2020/09/12 17:18:22;;;;;;;2.4;1.7;;;;;;;;;;;;;
2020/09/12 17:20:47;;;;;;;1.7;1.2;;;;;;;;;;;;;
2020/09/12 17:23:12;;;;;;;2;1.3;;;;;;;;;;;;;
2020/09/12 17:25:37;;;;;;;2.1;1.5;;;;;;;;;;;;;
2020/09/12 17:28:03;;;;;;;9.2;3.4;;;;;;;;;;;;;
2020/09/12 17:30:28;;;;;;;2.9;1.9;;;;;;;;;;;;;
2020/09/12 17:32:53;;;;;;;3.5;1.8;;;;;;;;;;;;;
2020/09/12 17:35:18;;;;;;;3.6;1.9;;;;;;;;;;;;;
2020/09/12 17:37:43;;;;;;;1.9;1.3;;;;;;;;;;;;;
2020/09/12 17:40:08;;;;;;;2.4;1.3;;;;;;;;;;;;;
2020/09/12 17:42:34;;;;;;;4;1.6;;;;;;;;;;;;;
2020/09/12 17:44:59;;;;;;;4.3;2.2;;;;;;;;;;;;;
2020/09/12 17:47:25;;;;;;;2.1;1.4;;;;;;;;;;;;;
2020/09/12 17:49:50;;;;;;;1.7;1.5;;;;;;;;;;;;;
2020/09/12 17:52:16;;;;;;;1.1;0.9;;;;;;;;;;;;;
2020/09/12 17:54:41;;;;;;;2.6;1.5;;;;;;;;;;;;;
2020/09/12 17:57:09;;;;;;;3.8;1.6;;;;;;;;;;;;;
2020/09/12 17:59:34;;;;;;;2.4;1.6;;;;;;;;;;;;;
2020/09/12 18:01:59;;;;;;;3.3;1.4;;;;;;;;;;;;;
2020/09/12 18:04:24;;;;;;;2;1.3;;;;;;;;;;;;;
2020/09/12 18:06:50;;;;;;;1.8;1.4;;;;;;;;;;;;;
2020/09/12 18:09:15;;;;;;;2.4;1.2;;;;;;;;;;;;;
2020/09/12 18:11:41;;;;;;;1.7;1.2;;;;;;;;;;;;;
2020/09/12 18:14:06;;;;;;;8.9;1.6;;;;;;;;;;;;;
2020/09/12 18:16:31;;;;;;;2.3;1.6;;;;;;;;;;;;;
2020/09/12 18:18:56;;;;;;;2.6;1.7;;;;;;;;;;;;;
2020/09/12 18:21:21;;;;;;;1.7;1.2;;;;;;;;;;;;;
2020/09/12 18:23:46;;;;;;;1.8;1.4;;;;;;;;;;;;;
2020/09/12 18:26:11;;;;;;;4.8;1.8;;;;;;;;;;;;;
2020/09/12 18:28:37;;;;;;;3.3;1.3;;;;;;;;;;;;;
2020/09/12 18:31:03;;;;;;;3.1;1.5;;;;;;;;;;;;;
2020/09/12 18:33:28;;;;;;;2.9;1.8;;;;;;;;;;;;;
2020/09/12 18:35:53;;;;;;;3.5;1.7;;;;;;;;;;;;;
2020/09/12 18:38:18;;;;;;;2.4;1.6;;;;;;;;;;;;;
2020/09/12 18:40:44;;;;;;;3;2.2;;;;;;;;;;;;;
2020/09/12 18:43:10;;;;;;;6.3;2.1;;;;;;;;;;;;;
2020/09/12 18:45:34;;;;;;;3.5;1.8;;;;;;;;;;;;;
2020/09/12 18:48:00;;;;;;;3.2;1.9;;;;;;;;;;;;;
2020/09/12 18:50:25;;;;;;;3.3;1.7;;;;;;;;;;;;;
2020/09/12 18:52:50;;;;;;;1.8;1.4;;;;;;;;;;;;;
2020/09/12 18:55:16;;;;;;;2.1;1.5;;;;;;;;;;;;;
2020/09/12 18:57:42;;;;;;;3.9;1.7;;;;;;;;;;;;;
2020/09/12 19:00:09;;;;;;;3;1.7;;;;;;;;;;;;;
2020/09/12 19:02:34;;;;;;;5.9;2;;;;;;;;;;;;;
2020/09/12 19:05:00;;;;;;;2;1.4;;;;;;;;;;;;;
2020/09/12 19:07:25;;;;;;;3.3;2;;;;;;;;;;;;;
2020/09/12 19:09:51;;;;;;;3.7;1.9;;;;;;;;;;;;;
2020/09/12 19:12:16;;;;;;;2.3;1.8;;;;;;;;;;;;;
2020/09/12 19:14:43;;;;;;;2.7;1.7;;;;;;;;;;;;;
2020/09/12 19:17:09;;;;;;;2.3;1.4;;;;;;;;;;;;;
2020/09/12 19:19:34;;;;;;;3.2;1.4;;;;;;;;;;;;;
2020/09/12 19:21:59;;;;;;;3.8;1.5;;;;;;;;;;;;;
2020/09/12 19:24:24;;;;;;;2.8;1.9;;;;;;;;;;;;;
2020/09/12 19:26:50;;;;;;;3.1;1.8;;;;;;;;;;;;;
2020/09/12 19:29:16;;;;;;;4.9;1.9;;;;;;;;;;;;;
2020/09/12 19:31:40;;;;;;;3;1.9;;;;;;;;;;;;;
2020/09/12 19:34:07;;;;;;;3.2;1.7;;;;;;;;;;;;;
2020/09/12 19:36:32;;;;;;;3;1.8;;;;;;;;;;;;;
2020/09/12 19:38:57;;;;;;;2.4;1.7;;;;;;;;;;;;;
2020/09/12 19:41:22;;;;;;;2.7;1.4;;;;;;;;;;;;;
2020/09/12 19:43:47;;;;;;;5;2;;;;;;;;;;;;;
2020/09/12 19:46:12;;;;;;;2.4;1.7;;;;;;;;;;;;;
2020/09/12 19:48:38;;;;;;;13.3;1.8;;;;;;;;;;;;;
2020/09/12 19:51:04;;;;;;;3;1.7;;;;;;;;;;;;;
2020/09/12 19:53:30;;;;;;;3.2;1.9;;;;;;;;;;;;;
2020/09/12 19:55:55;;;;;;;7.4;1.8;;;;;;;;;;;;;
2020/09/12 19:58:20;;;;;;;3.8;1.9;;;;;;;;;;;;;
2020/09/12 20:00:48;;;;;;;3.8;2.4;;;;;;;;;;;;;
2020/09/12 20:03:13;;;;;;;2.8;1.4;;;;;;;;;;;;;
2020/09/12 20:05:38;;;;;;;1.5;1.4;;;;;;;;;;;;;